Airfield :
LOGIN :

Register | Disclaimer

   EN    FR    IT 

 










Legend :    VFR   Marginal VFR   IFR   Intensive IFR   Very Intensive IFR
Visi :
Ceiling :
>= 8 km
>= 3000ft
5 to 8 km
1000 to 3000 ft
1500m to 5 km
500 to 1000 ft
800 to 1500m
200 to 500 ft
< 800m
< 200 ft
Symbols :   Thunderstorms  Fog  Heavy snow  Heavy precipitations  Wind > 20 kt
SIGMETs :     Misc.  Thunderstorms  Icing  Turbulence  Mountain Waves  Volcanic Ashes







- Airport Elevation : 19 ft
- IATA code : LCY
- Download approach charts


EGLC - London City

CURRENT METAR :
  • 220650Z AUTO 23010KT 9999 OVC034 20/15 Q1021

EXPIRED METARs :
  • 220620Z AUTO 23010KT 9999 OVC034 19/15 Q1021
  • 220550Z AUTO 23009KT 9999 OVC033 19/15 Q1021
  • 220520Z AUTO 22008KT 9999 OVC036 18/15 Q1021
  • 220450Z AUTO 22006KT 190V260 9999 OVC035 18/15 Q1021
  • 220420Z AUTO 22006KT 9999 BKN036 18/15 Q1021

TAF TAF EGLC
Valid from the 22 at 06:00 until the 22 at 15:00 UTC


220451Z 2206/2215 23008KT 9999 FEW015 BKN035
ATIS : +44 20 7646 0224
No reported NOTAMs for that airfield.
1 SIGMET reported for the London FIR (EGTT) :
 
Severe mountain waves
EGTT SIGMET 02 VALID 220600/221000 EGRR
EGTT LONDON FIR SEV MTW FCST WI N5500 E00140 - N5224 W00120 - N5221 W00530 - N5500 W00530 - N5500 E00140 FL040/240 MOV N 05KT NC=



MET'MAP, your aeronautical weather chart ! - Copyright ORBIFLY December 2007 - Disclaimer

ORBIFLY MET'MAP TEAM :

Programming & Development : Alexandra Zaïnal
Concept & Development : Baudouin d'Aumeries
Co-Development & Prog : Marc-Olivier Méhu
Technical & hardware support : Manuel Goepfert

Contact : metmap@orbifly.com




SOURCES & CREDITS :

   NOAA